Main page
METAR-TAF:

METAR-TAF

Airports :

MoD Boscombe Down

Boscombe Down, England

latitude: 51-10N, longitude: 001-45W, elevation: 124 m

Current weather observation

The report was made 21 minutes ago, at 12:20 UTC
Wind 11 kt from the South
Temperature 22°C
Humidity 73%
Pressure 1017 hPa
Visibility 10 km or more
Broken clouds at a height of 2400 ft
Broken clouds at a height of 3000 ft

METAR: EGDM 061220Z 18011KT 9999 BKN024 BKN030 22/17 Q1017 BECMG SCT025 RMK WHT BECMG BLU

Time: 13:41 (12:41 UTC)

Forecast

The report was made 1 hour and 58 minutes ago, at 10:43 UTC
Forecast valid from 06 at 12 UTC to 06 at 18 UTC
Wind 10 kt from the South
Visibility 10 km or more
Broken clouds at a height of 1200 ft
Becoming
from 06 at 12 UTC to 06 at 15 UTC
Scattered clouds at a height of 1800 ft
Becoming
from 06 at 15 UTC to 06 at 17 UTC
Few clouds at a height of 2200 ft

TAF: EGDM 061043Z 0612/0618 18010KT 9999 BKN012 BECMG 0612/0615 SCT018 BECMG 0615/0617 FEW022

Weather observations and forecasts of more than 4000 airports (METAR and TAF reports).

The available stations are represented by yellow and red dots on the map.

Hover mouse over dot to see the name of the station.

Then click to see weather observations and forecasts.

To change the map : click on the green buttons with a black cross to zoom in, on the green button with a dash to zoom out, or on the green arrows for adjacent maps.


METAR-TAF: